sensor_id;sensor_type;location;lat;lon;timestamp;P1;durP1;ratioP1;P2;durP2;ratioP2
62903;SDS011;49000;50.698;13.322;2024-01-16T00:01:19;2.90;;;1.67;;
62903;SDS011;49000;50.698;13.322;2024-01-16T00:03:45;5.23;;;1.37;;
62903;SDS011;49000;50.698;13.322;2024-01-16T00:06:10;2.50;;;1.10;;
62903;SDS011;49000;50.698;13.322;2024-01-16T00:08:36;1.57;;;0.90;;
62903;SDS011;49000;50.698;13.322;2024-01-16T00:11:02;7.97;;;1.50;;
62903;SDS011;49000;50.698;13.322;2024-01-16T00:13:28;5.10;;;1.70;;
62903;SDS011;49000;50.698;13.322;2024-01-16T00:15:54;2.43;;;1.10;;
62903;SDS011;49000;50.698;13.322;2024-01-16T00:18:21;3.53;;;1.00;;
62903;SDS011;49000;50.698;13.322;2024-01-16T00:20:47;3.07;;;1.07;;
62903;SDS011;49000;50.698;13.322;2024-01-16T00:23:12;3.73;;;1.50;;
62903;SDS011;49000;50.698;13.322;2024-01-16T00:25:38;2.73;;;1.27;;
62903;SDS011;49000;50.698;13.322;2024-01-16T00:28:03;6.37;;;1.23;;
62903;SDS011;49000;50.698;13.322;2024-01-16T00:30:29;4.53;;;1.50;;
62903;SDS011;49000;50.698;13.322;2024-01-16T00:32:55;4.27;;;1.50;;
62903;SDS011;49000;50.698;13.322;2024-01-16T00:35:20;5.13;;;1.33;;
62903;SDS011;49000;50.698;13.322;2024-01-16T00:37:46;4.43;;;1.73;;
62903;SDS011;49000;50.698;13.322;2024-01-16T00:40:11;3.63;;;1.40;;
62903;SDS011;49000;50.698;13.322;2024-01-16T00:42:37;4.70;;;1.70;;
62903;SDS011;49000;50.698;13.322;2024-01-16T00:45:03;4.03;;;1.47;;
62903;SDS011;49000;50.698;13.322;2024-01-16T00:47:29;3.83;;;1.73;;
62903;SDS011;49000;50.698;13.322;2024-01-16T00:49:55;1.77;;;1.50;;
62903;SDS011;49000;50.698;13.322;2024-01-16T00:52:20;5.07;;;1.70;;
62903;SDS011;49000;50.698;13.322;2024-01-16T00:54:45;4.03;;;1.60;;
62903;SDS011;49000;50.698;13.322;2024-01-16T00:57:11;4.90;;;1.63;;
62903;SDS011;49000;50.698;13.322;2024-01-16T00:59:37;7.90;;;1.90;;
62903;SDS011;49000;50.698;13.322;2024-01-16T01:02:02;4.27;;;1.60;;
62903;SDS011;49000;50.698;13.322;2024-01-16T01:04:28;3.57;;;1.70;;
62903;SDS011;49000;50.698;13.322;2024-01-16T01:06:54;3.13;;;1.50;;
62903;SDS011;49000;50.698;13.322;2024-01-16T01:09:20;3.07;;;1.97;;
62903;SDS011;49000;50.698;13.322;2024-01-16T01:11:45;5.17;;;1.73;;
62903;SDS011;49000;50.698;13.322;2024-01-16T01:14:11;8.10;;;1.97;;
62903;SDS011;49000;50.698;13.322;2024-01-16T01:16:36;5.97;;;1.97;;
62903;SDS011;49000;50.698;13.322;2024-01-16T01:19:02;13.17;;;2.50;;
62903;SDS011;49000;50.698;13.322;2024-01-16T01:21:28;5.37;;;1.70;;
62903;SDS011;49000;50.698;13.322;2024-01-16T01:23:53;6.10;;;2.00;;
62903;SDS011;49000;50.698;13.322;2024-01-16T01:26:19;4.40;;;1.80;;
62903;SDS011;49000;50.698;13.322;2024-01-16T01:28:44;5.23;;;2.00;;
62903;SDS011;49000;50.698;13.322;2024-01-16T01:31:10;4.73;;;2.00;;
62903;SDS011;49000;50.698;13.322;2024-01-16T01:33:37;3.70;;;2.00;;
62903;SDS011;49000;50.698;13.322;2024-01-16T01:36:02;4.97;;;2.10;;
62903;SDS011;49000;50.698;13.322;2024-01-16T01:38:28;5.57;;;1.90;;
62903;SDS011;49000;50.698;13.322;2024-01-16T01:40:54;5.43;;;1.77;;
62903;SDS011;49000;50.698;13.322;2024-01-16T01:43:20;4.73;;;1.90;;
62903;SDS011;49000;50.698;13.322;2024-01-16T01:48:43;5.10;;;1.50;;
62903;SDS011;49000;50.698;13.322;2024-01-16T01:51:10;4.50;;;1.50;;
62903;SDS011;49000;50.698;13.322;2024-01-16T01:53:38;3.47;;;1.40;;
62903;SDS011;49000;50.698;13.322;2024-01-16T01:56:04;3.13;;;1.53;;
62903;SDS011;49000;50.698;13.322;2024-01-16T01:58:43;3.37;;;1.60;;
62903;SDS011;49000;50.698;13.322;2024-01-16T02:01:10;3.47;;;1.30;;
62903;SDS011;49000;50.698;13.322;2024-01-16T02:03:46;4.00;;;1.53;;
62903;SDS011;49000;50.698;13.322;2024-01-16T02:06:12;2.93;;;1.23;;
62903;SDS011;49000;50.698;13.322;2024-01-16T02:08:40;4.37;;;1.67;;
62903;SDS011;49000;50.698;13.322;2024-01-16T02:11:05;4.23;;;1.30;;
62903;SDS011;49000;50.698;13.322;2024-01-16T02:13:31;3.83;;;1.17;;
62903;SDS011;49000;50.698;13.322;2024-01-16T02:15:57;4.00;;;1.33;;
62903;SDS011;49000;50.698;13.322;2024-01-16T02:18:23;2.80;;;1.40;;
62903;SDS011;49000;50.698;13.322;2024-01-16T02:20:48;3.97;;;1.30;;
62903;SDS011;49000;50.698;13.322;2024-01-16T02:23:14;2.80;;;1.20;;
62903;SDS011;49000;50.698;13.322;2024-01-16T02:25:43;7.43;;;1.17;;
62903;SDS011;49000;50.698;13.322;2024-01-16T02:28:09;2.03;;;1.30;;
62903;SDS011;49000;50.698;13.322;2024-01-16T02:30:35;2.67;;;1.00;;
62903;SDS011;49000;50.698;13.322;2024-01-16T02:33:00;4.43;;;1.40;;
62903;SDS011;49000;50.698;13.322;2024-01-16T02:35:26;3.67;;;1.20;;
62903;SDS011;49000;50.698;13.322;2024-01-16T02:37:51;2.33;;;1.20;;
62903;SDS011;49000;50.698;13.322;2024-01-16T02:40:17;2.50;;;1.17;;
62903;SDS011;49000;50.698;13.322;2024-01-16T02:42:42;4.90;;;1.30;;
62903;SDS011;49000;50.698;13.322;2024-01-16T02:45:08;4.90;;;1.20;;
62903;SDS011;49000;50.698;13.322;2024-01-16T02:47:34;2.83;;;1.20;;
62903;SDS011;49000;50.698;13.322;2024-01-16T02:49:59;2.43;;;0.73;;
62903;SDS011;49000;50.698;13.322;2024-01-16T02:52:25;2.23;;;0.97;;
62903;SDS011;49000;50.698;13.322;2024-01-16T02:54:50;3.20;;;1.10;;
62903;SDS011;49000;50.698;13.322;2024-01-16T02:57:16;2.53;;;1.17;;
62903;SDS011;49000;50.698;13.322;2024-01-16T02:59:44;3.53;;;1.00;;
62903;SDS011;49000;50.698;13.322;2024-01-16T03:02:10;4.00;;;1.00;;
62903;SDS011;49000;50.698;13.322;2024-01-16T03:04:36;3.50;;;1.00;;
62903;SDS011;49000;50.698;13.322;2024-01-16T03:07:02;3.03;;;1.70;;
62903;SDS011;49000;50.698;13.322;2024-01-16T03:09:27;6.10;;;1.80;;
62903;SDS011;49000;50.698;13.322;2024-01-16T03:11:53;2.73;;;0.80;;
62903;SDS011;49000;50.698;13.322;2024-01-16T03:14:18;1.30;;;0.90;;
62903;SDS011;49000;50.698;13.322;2024-01-16T03:16:44;4.97;;;1.03;;
62903;SDS011;49000;50.698;13.322;2024-01-16T03:19:09;2.93;;;1.10;;
62903;SDS011;49000;50.698;13.322;2024-01-16T03:21:36;2.13;;;1.00;;
62903;SDS011;49000;50.698;13.322;2024-01-16T03:24:02;3.93;;;0.90;;
62903;SDS011;49000;50.698;13.322;2024-01-16T03:26:28;1.63;;;1.00;;
62903;SDS011;49000;50.698;13.322;2024-01-16T03:28:53;1.97;;;1.00;;
62903;SDS011;49000;50.698;13.322;2024-01-16T03:31:19;4.33;;;1.00;;
62903;SDS011;49000;50.698;13.322;2024-01-16T03:33:46;5.33;;;1.20;;
62903;SDS011;49000;50.698;13.322;2024-01-16T03:36:11;3.63;;;1.20;;
62903;SDS011;49000;50.698;13.322;2024-01-16T03:38:38;3.73;;;1.00;;
62903;SDS011;49000;50.698;13.322;2024-01-16T03:41:04;5.43;;;1.13;;
62903;SDS011;49000;50.698;13.322;2024-01-16T03:43:32;2.10;;;0.90;;
62903;SDS011;49000;50.698;13.322;2024-01-16T03:45:58;3.23;;;0.73;;
62903;SDS011;49000;50.698;13.322;2024-01-16T03:48:24;1.60;;;0.90;;
62903;SDS011;49000;50.698;13.322;2024-01-16T03:50:49;4.87;;;1.43;;
62903;SDS011;49000;50.698;13.322;2024-01-16T03:53:15;2.83;;;1.20;;
62903;SDS011;49000;50.698;13.322;2024-01-16T03:55:40;3.07;;;1.30;;
62903;SDS011;49000;50.698;13.322;2024-01-16T03:58:06;2.47;;;1.20;;
62903;SDS011;49000;50.698;13.322;2024-01-16T04:00:32;3.43;;;1.60;;
62903;SDS011;49000;50.698;13.322;2024-01-16T04:02:58;3.27;;;1.40;;
62903;SDS011;49000;50.698;13.322;2024-01-16T04:05:23;6.90;;;1.87;;
62903;SDS011;49000;50.698;13.322;2024-01-16T04:07:48;3.37;;;1.53;;
62903;SDS011;49000;50.698;13.322;2024-01-16T04:10:14;2.40;;;1.40;;
62903;SDS011;49000;50.698;13.322;2024-01-16T04:12:39;3.20;;;1.40;;
62903;SDS011;49000;50.698;13.322;2024-01-16T04:15:05;3.10;;;1.60;;
62903;SDS011;49000;50.698;13.322;2024-01-16T04:17:31;2.93;;;1.40;;
62903;SDS011;49000;50.698;13.322;2024-01-16T04:19:56;3.50;;;1.63;;
62903;SDS011;49000;50.698;13.322;2024-01-16T04:22:22;2.80;;;1.20;;
62903;SDS011;49000;50.698;13.322;2024-01-16T04:24:47;2.23;;;1.63;;
62903;SDS011;49000;50.698;13.322;2024-01-16T04:27:13;2.53;;;1.23;;
62903;SDS011;49000;50.698;13.322;2024-01-16T04:29:38;2.57;;;1.13;;
62903;SDS011;49000;50.698;13.322;2024-01-16T04:32:04;4.67;;;1.70;;
62903;SDS011;49000;50.698;13.322;2024-01-16T04:34:29;4.40;;;1.57;;
62903;SDS011;49000;50.698;13.322;2024-01-16T04:36:55;6.07;;;2.20;;
62903;SDS011;49000;50.698;13.322;2024-01-16T04:39:20;4.43;;;1.33;;
62903;SDS011;49000;50.698;13.322;2024-01-16T04:41:49;4.10;;;1.40;;
62903;SDS011;49000;50.698;13.322;2024-01-16T04:44:15;2.10;;;1.30;;
62903;SDS011;49000;50.698;13.322;2024-01-16T04:46:40;2.40;;;1.30;;
62903;SDS011;49000;50.698;13.322;2024-01-16T04:49:06;1.87;;;1.20;;
62903;SDS011;49000;50.698;13.322;2024-01-16T04:51:31;3.03;;;1.30;;
62903;SDS011;49000;50.698;13.322;2024-01-16T04:53:57;3.23;;;1.20;;
62903;SDS011;49000;50.698;13.322;2024-01-16T04:56:22;3.03;;;1.13;;
62903;SDS011;49000;50.698;13.322;2024-01-16T04:58:47;3.07;;;1.10;;
62903;SDS011;49000;50.698;13.322;2024-01-16T05:01:13;3.30;;;1.20;;
62903;SDS011;49000;50.698;13.322;2024-01-16T05:03:39;2.40;;;1.10;;
62903;SDS011;49000;50.698;13.322;2024-01-16T05:06:04;2.70;;;1.10;;
62903;SDS011;49000;50.698;13.322;2024-01-16T05:08:30;4.27;;;0.97;;
62903;SDS011;49000;50.698;13.322;2024-01-16T05:10:56;4.23;;;1.30;;
62903;SDS011;49000;50.698;13.322;2024-01-16T05:13:21;2.30;;;1.10;;
62903;SDS011;49000;50.698;13.322;2024-01-16T05:15:47;2.50;;;1.50;;
62903;SDS011;49000;50.698;13.322;2024-01-16T05:18:12;2.37;;;1.40;;
62903;SDS011;49000;50.698;13.322;2024-01-16T05:20:38;3.17;;;1.50;;
62903;SDS011;49000;50.698;13.322;2024-01-16T05:23:05;3.90;;;1.23;;
62903;SDS011;49000;50.698;13.322;2024-01-16T05:25:31;3.63;;;1.40;;
62903;SDS011;49000;50.698;13.322;2024-01-16T05:27:56;3.07;;;1.30;;
62903;SDS011;49000;50.698;13.322;2024-01-16T05:30:22;2.33;;;1.10;;
62903;SDS011;49000;50.698;13.322;2024-01-16T05:32:47;5.07;;;1.43;;
62903;SDS011;49000;50.698;13.322;2024-01-16T05:35:13;3.87;;;1.30;;
62903;SDS011;49000;50.698;13.322;2024-01-16T05:37:38;2.00;;;1.13;;
62903;SDS011;49000;50.698;13.322;2024-01-16T05:40:04;2.17;;;1.27;;
62903;SDS011;49000;50.698;13.322;2024-01-16T05:42:32;2.43;;;1.30;;
62903;SDS011;49000;50.698;13.322;2024-01-16T05:44:57;4.70;;;1.60;;
62903;SDS011;49000;50.698;13.322;2024-01-16T05:47:23;3.43;;;1.43;;
62903;SDS011;49000;50.698;13.322;2024-01-16T05:49:52;3.03;;;1.20;;
62903;SDS011;49000;50.698;13.322;2024-01-16T05:52:18;3.33;;;1.57;;
62903;SDS011;49000;50.698;13.322;2024-01-16T05:54:44;3.13;;;1.57;;
62903;SDS011;49000;50.698;13.322;2024-01-16T05:57:09;2.43;;;1.60;;
62903;SDS011;49000;50.698;13.322;2024-01-16T05:59:35;1.83;;;1.43;;
62903;SDS011;49000;50.698;13.322;2024-01-16T06:02:00;3.70;;;2.03;;
62903;SDS011;49000;50.698;13.322;2024-01-16T06:04:25;2.53;;;1.60;;
62903;SDS011;49000;50.698;13.322;2024-01-16T06:06:51;4.57;;;1.93;;
62903;SDS011;49000;50.698;13.322;2024-01-16T06:09:17;3.67;;;1.50;;
62903;SDS011;49000;50.698;13.322;2024-01-16T06:11:43;2.90;;;1.63;;
62903;SDS011;49000;50.698;13.322;2024-01-16T06:14:09;3.30;;;1.43;;
62903;SDS011;49000;50.698;13.322;2024-01-16T06:16:34;6.20;;;2.00;;
62903;SDS011;49000;50.698;13.322;2024-01-16T06:19:00;4.83;;;2.00;;
62903;SDS011;49000;50.698;13.322;2024-01-16T06:21:26;4.00;;;1.70;;
62903;SDS011;49000;50.698;13.322;2024-01-16T06:23:52;3.20;;;1.93;;
62903;SDS011;49000;50.698;13.322;2024-01-16T06:26:17;5.30;;;2.93;;
62903;SDS011;49000;50.698;13.322;2024-01-16T06:28:43;3.00;;;1.83;;
62903;SDS011;49000;50.698;13.322;2024-01-16T06:31:09;4.53;;;1.90;;
62903;SDS011;49000;50.698;13.322;2024-01-16T06:33:34;3.17;;;1.53;;
62903;SDS011;49000;50.698;13.322;2024-01-16T06:36:00;5.67;;;2.00;;
62903;SDS011;49000;50.698;13.322;2024-01-16T06:38:29;7.40;;;3.10;;
62903;SDS011;49000;50.698;13.322;2024-01-16T06:40:55;5.67;;;2.47;;
62903;SDS011;49000;50.698;13.322;2024-01-16T06:43:21;4.93;;;1.73;;
62903;SDS011;49000;50.698;13.322;2024-01-16T06:45:46;4.03;;;1.70;;
62903;SDS011;49000;50.698;13.322;2024-01-16T06:48:12;5.30;;;1.70;;
62903;SDS011;49000;50.698;13.322;2024-01-16T06:50:37;3.97;;;1.77;;
62903;SDS011;49000;50.698;13.322;2024-01-16T06:53:03;3.13;;;1.37;;
62903;SDS011;49000;50.698;13.322;2024-01-16T06:55:29;2.97;;;1.60;;
62903;SDS011;49000;50.698;13.322;2024-01-16T06:57:54;4.13;;;1.60;;
62903;SDS011;49000;50.698;13.322;2024-01-16T07:00:20;5.17;;;2.10;;
62903;SDS011;49000;50.698;13.322;2024-01-16T07:02:47;5.07;;;1.70;;
62903;SDS011;49000;50.698;13.322;2024-01-16T07:05:13;5.13;;;2.07;;
62903;SDS011;49000;50.698;13.322;2024-01-16T07:07:39;2.80;;;1.67;;
62903;SDS011;49000;50.698;13.322;2024-01-16T07:10:04;3.53;;;1.30;;
62903;SDS011;49000;50.698;13.322;2024-01-16T07:12:33;4.90;;;1.67;;
62903;SDS011;49000;50.698;13.322;2024-01-16T07:14:59;5.40;;;1.60;;
62903;SDS011;49000;50.698;13.322;2024-01-16T07:17:24;6.57;;;1.70;;
62903;SDS011;49000;50.698;13.322;2024-01-16T07:19:50;3.83;;;1.63;;
62903;SDS011;49000;50.698;13.322;2024-01-16T07:22:16;3.17;;;1.33;;
62903;SDS011;49000;50.698;13.322;2024-01-16T07:24:42;4.93;;;1.60;;
62903;SDS011;49000;50.698;13.322;2024-01-16T07:27:07;3.77;;;1.50;;
62903;SDS011;49000;50.698;13.322;2024-01-16T07:29:33;5.07;;;1.67;;
62903;SDS011;49000;50.698;13.322;2024-01-16T07:31:59;4.50;;;1.63;;
62903;SDS011;49000;50.698;13.322;2024-01-16T07:34:24;5.67;;;1.67;;
62903;SDS011;49000;50.698;13.322;2024-01-16T07:36:50;3.90;;;1.43;;
62903;SDS011;49000;50.698;13.322;2024-01-16T07:39:16;5.40;;;1.43;;
62903;SDS011;49000;50.698;13.322;2024-01-16T07:41:41;3.23;;;1.60;;
62903;SDS011;49000;50.698;13.322;2024-01-16T07:44:07;3.80;;;1.77;;
62903;SDS011;49000;50.698;13.322;2024-01-16T07:46:32;5.10;;;1.30;;
62903;SDS011;49000;50.698;13.322;2024-01-16T07:48:58;3.20;;;1.33;;
62903;SDS011;49000;50.698;13.322;2024-01-16T07:51:23;6.53;;;1.83;;
62903;SDS011;49000;50.698;13.322;2024-01-16T07:53:52;4.00;;;1.37;;
62903;SDS011;49000;50.698;13.322;2024-01-16T07:56:30;5.30;;;1.20;;
62903;SDS011;49000;50.698;13.322;2024-01-16T07:58:56;5.63;;;1.27;;
62903;SDS011;49000;50.698;13.322;2024-01-16T08:01:21;2.70;;;1.50;;
62903;SDS011;49000;50.698;13.322;2024-01-16T08:03:47;4.23;;;1.53;;
62903;SDS011;49000;50.698;13.322;2024-01-16T08:06:13;3.97;;;1.40;;
62903;SDS011;49000;50.698;13.322;2024-01-16T08:08:38;6.73;;;1.87;;
62903;SDS011;49000;50.698;13.322;2024-01-16T08:11:04;3.23;;;1.57;;
62903;SDS011;49000;50.698;13.322;2024-01-16T08:13:29;8.07;;;1.70;;
62903;SDS011;49000;50.698;13.322;2024-01-16T08:15:55;3.73;;;1.50;;
62903;SDS011;49000;50.698;13.322;2024-01-16T08:18:20;3.13;;;1.53;;
62903;SDS011;49000;50.698;13.322;2024-01-16T08:20:45;3.57;;;1.60;;
62903;SDS011;49000;50.698;13.322;2024-01-16T08:23:11;3.83;;;1.50;;
62903;SDS011;49000;50.698;13.322;2024-01-16T08:25:37;4.10;;;1.60;;
62903;SDS011;49000;50.698;13.322;2024-01-16T08:28:03;7.97;;;1.70;;
62903;SDS011;49000;50.698;13.322;2024-01-16T08:30:29;6.87;;;1.83;;
62903;SDS011;49000;50.698;13.322;2024-01-16T08:32:55;5.60;;;1.80;;
62903;SDS011;49000;50.698;13.322;2024-01-16T08:35:20;4.90;;;2.23;;
62903;SDS011;49000;50.698;13.322;2024-01-16T08:37:46;8.37;;;1.73;;
62903;SDS011;49000;50.698;13.322;2024-01-16T08:40:12;6.03;;;1.60;;
62903;SDS011;49000;50.698;13.322;2024-01-16T08:42:38;4.40;;;1.47;;
62903;SDS011;49000;50.698;13.322;2024-01-16T08:45:03;5.70;;;1.80;;
62903;SDS011;49000;50.698;13.322;2024-01-16T08:47:30;2.73;;;1.53;;
62903;SDS011;49000;50.698;13.322;2024-01-16T08:49:56;2.60;;;1.30;;
62903;SDS011;49000;50.698;13.322;2024-01-16T08:52:21;4.53;;;2.00;;
62903;SDS011;49000;50.698;13.322;2024-01-16T08:54:47;6.00;;;1.80;;
62903;SDS011;49000;50.698;13.322;2024-01-16T08:57:13;3.63;;;1.50;;
62903;SDS011;49000;50.698;13.322;2024-01-16T08:59:39;4.63;;;1.80;;
62903;SDS011;49000;50.698;13.322;2024-01-16T09:02:05;3.73;;;1.80;;
62903;SDS011;49000;50.698;13.322;2024-01-16T09:04:31;4.47;;;1.67;;
62903;SDS011;49000;50.698;13.322;2024-01-16T09:06:56;5.73;;;1.70;;
62903;SDS011;49000;50.698;13.322;2024-01-16T09:09:22;8.73;;;1.80;;
62903;SDS011;49000;50.698;13.322;2024-01-16T09:11:47;6.90;;;1.87;;
62903;SDS011;49000;50.698;13.322;2024-01-16T09:14:13;5.03;;;1.70;;
62903;SDS011;49000;50.698;13.322;2024-01-16T09:16:38;5.60;;;1.67;;
62903;SDS011;49000;50.698;13.322;2024-01-16T09:19:04;3.13;;;1.70;;
62903;SDS011;49000;50.698;13.322;2024-01-16T09:21:29;3.23;;;1.70;;
62903;SDS011;49000;50.698;13.322;2024-01-16T09:23:55;3.37;;;1.73;;
62903;SDS011;49000;50.698;13.322;2024-01-16T09:26:20;5.30;;;1.37;;
62903;SDS011;49000;50.698;13.322;2024-01-16T09:28:46;5.90;;;1.90;;
62903;SDS011;49000;50.698;13.322;2024-01-16T09:31:11;5.37;;;1.70;;
62903;SDS011;49000;50.698;13.322;2024-01-16T09:33:37;4.97;;;1.70;;
62903;SDS011;49000;50.698;13.322;2024-01-16T09:36:03;4.97;;;2.23;;
62903;SDS011;49000;50.698;13.322;2024-01-16T09:38:29;3.73;;;1.70;;
62903;SDS011;49000;50.698;13.322;2024-01-16T09:40:56;4.83;;;1.80;;
62903;SDS011;49000;50.698;13.322;2024-01-16T09:43:23;7.63;;;1.70;;
62903;SDS011;49000;50.698;13.322;2024-01-16T09:45:55;4.43;;;1.77;;
62903;SDS011;49000;50.698;13.322;2024-01-16T09:48:21;3.83;;;1.30;;
62903;SDS011;49000;50.698;13.322;2024-01-16T09:50:46;2.50;;;1.40;;
62903;SDS011;49000;50.698;13.322;2024-01-16T09:53:12;5.23;;;1.43;;
62903;SDS011;49000;50.698;13.322;2024-01-16T09:55:37;4.20;;;1.77;;
62903;SDS011;49000;50.698;13.322;2024-01-16T09:58:03;4.33;;;1.43;;
62903;SDS011;49000;50.698;13.322;2024-01-16T10:00:31;4.43;;;1.70;;
62903;SDS011;49000;50.698;13.322;2024-01-16T10:02:58;5.47;;;2.10;;
62903;SDS011;49000;50.698;13.322;2024-01-16T10:05:25;3.27;;;1.53;;
62903;SDS011;49000;50.698;13.322;2024-01-16T10:07:50;3.97;;;1.60;;
62903;SDS011;49000;50.698;13.322;2024-01-16T10:10:17;2.30;;;1.37;;
62903;SDS011;49000;50.698;13.322;2024-01-16T10:12:43;6.83;;;1.50;;
62903;SDS011;49000;50.698;13.322;2024-01-16T10:15:09;2.67;;;1.50;;
62903;SDS011;49000;50.698;13.322;2024-01-16T10:17:35;5.43;;;1.67;;
62903;SDS011;49000;50.698;13.322;2024-01-16T10:20:02;4.70;;;1.83;;
62903;SDS011;49000;50.698;13.322;2024-01-16T10:22:29;4.00;;;1.77;;
62903;SDS011;49000;50.698;13.322;2024-01-16T10:25:08;5.97;;;2.40;;
62903;SDS011;49000;50.698;13.322;2024-01-16T10:27:38;4.07;;;1.77;;
62903;SDS011;49000;50.698;13.322;2024-01-16T10:30:05;5.83;;;2.30;;
62903;SDS011;49000;50.698;13.322;2024-01-16T10:32:41;6.07;;;2.07;;
62903;SDS011;49000;50.698;13.322;2024-01-16T10:35:12;2.83;;;1.50;;
62903;SDS011;49000;50.698;13.322;2024-01-16T10:37:48;6.47;;;1.77;;
62903;SDS011;49000;50.698;13.322;2024-01-16T10:40:21;4.20;;;2.20;;
62903;SDS011;49000;50.698;13.322;2024-01-16T10:42:56;4.43;;;1.70;;
62903;SDS011;49000;50.698;13.322;2024-01-16T10:45:23;4.57;;;1.90;;
62903;SDS011;49000;50.698;13.322;2024-01-16T10:48:07;5.70;;;1.90;;
62903;SDS011;49000;50.698;13.322;2024-01-16T10:50:33;5.70;;;2.23;;
62903;SDS011;49000;50.698;13.322;2024-01-16T10:53:03;2.40;;;1.57;;
62903;SDS011;49000;50.698;13.322;2024-01-16T10:55:30;7.73;;;2.10;;
62903;SDS011;49000;50.698;13.322;2024-01-16T10:58:00;4.90;;;2.27;;
62903;SDS011;49000;50.698;13.322;2024-01-16T11:00:27;2.80;;;1.93;;
62903;SDS011;49000;50.698;13.322;2024-01-16T11:03:01;6.67;;;2.23;;
62903;SDS011;49000;50.698;13.322;2024-01-16T11:05:37;5.50;;;1.87;;
62903;SDS011;49000;50.698;13.322;2024-01-16T11:08:04;4.30;;;2.20;;
62903;SDS011;49000;50.698;13.322;2024-01-16T11:10:31;4.50;;;1.80;;
62903;SDS011;49000;50.698;13.322;2024-01-16T11:12:59;4.73;;;2.00;;
62903;SDS011;49000;50.698;13.322;2024-01-16T11:15:27;3.47;;;2.33;;
62903;SDS011;49000;50.698;13.322;2024-01-16T11:17:53;5.67;;;2.07;;
62903;SDS011;49000;50.698;13.322;2024-01-16T11:20:20;4.23;;;1.80;;
62903;SDS011;49000;50.698;13.322;2024-01-16T11:22:46;3.30;;;1.80;;
62903;SDS011;49000;50.698;13.322;2024-01-16T11:25:14;5.70;;;2.00;;
62903;SDS011;49000;50.698;13.322;2024-01-16T11:27:42;5.17;;;2.03;;
62903;SDS011;49000;50.698;13.322;2024-01-16T11:30:09;3.97;;;2.23;;
62903;SDS011;49000;50.698;13.322;2024-01-16T11:32:39;3.80;;;1.90;;
62903;SDS011;49000;50.698;13.322;2024-01-16T11:35:08;3.20;;;1.77;;
62903;SDS011;49000;50.698;13.322;2024-01-16T11:37:38;3.90;;;1.87;;
62903;SDS011;49000;50.698;13.322;2024-01-16T11:42:52;2.13;;;1.40;;
62903;SDS011;49000;50.698;13.322;2024-01-16T11:48:12;4.63;;;1.60;;
62903;SDS011;49000;50.698;13.322;2024-01-16T11:50:38;2.43;;;1.40;;
62903;SDS011;49000;50.698;13.322;2024-01-16T11:53:05;3.33;;;1.30;;
62903;SDS011;49000;50.698;13.322;2024-01-16T11:55:31;3.47;;;1.70;;
62903;SDS011;49000;50.698;13.322;2024-01-16T12:00:47;3.70;;;1.40;;
62903;SDS011;49000;50.698;13.322;2024-01-16T12:03:16;2.80;;;1.27;;
62903;SDS011;49000;50.698;13.322;2024-01-16T12:05:54;5.37;;;1.70;;
62903;SDS011;49000;50.698;13.322;2024-01-16T12:08:23;3.13;;;1.43;;
62903;SDS011;49000;50.698;13.322;2024-01-16T12:10:49;2.23;;;1.40;;
62903;SDS011;49000;50.698;13.322;2024-01-16T12:13:14;3.87;;;1.53;;
62903;SDS011;49000;50.698;13.322;2024-01-16T12:15:40;4.50;;;1.80;;
62903;SDS011;49000;50.698;13.322;2024-01-16T12:18:06;3.73;;;1.53;;
62903;SDS011;49000;50.698;13.322;2024-01-16T12:20:33;6.23;;;1.73;;
62903;SDS011;49000;50.698;13.322;2024-01-16T12:23:04;3.90;;;1.43;;
62903;SDS011;49000;50.698;13.322;2024-01-16T12:25:35;4.47;;;1.60;;
62903;SDS011;49000;50.698;13.322;2024-01-16T12:28:04;2.90;;;1.60;;
62903;SDS011;49000;50.698;13.322;2024-01-16T12:30:31;3.43;;;1.33;;
62903;SDS011;49000;50.698;13.322;2024-01-16T12:33:07;3.20;;;1.40;;
62903;SDS011;49000;50.698;13.322;2024-01-16T12:35:38;4.13;;;1.63;;
62903;SDS011;49000;50.698;13.322;2024-01-16T12:38:10;3.63;;;1.60;;
62903;SDS011;49000;50.698;13.322;2024-01-16T12:40:37;2.83;;;1.27;;
62903;SDS011;49000;50.698;13.322;2024-01-16T12:43:05;4.93;;;1.30;;
62903;SDS011;49000;50.698;13.322;2024-01-16T12:45:31;4.07;;;1.70;;
62903;SDS011;49000;50.698;13.322;2024-01-16T12:47:59;4.87;;;1.80;;
62903;SDS011;49000;50.698;13.322;2024-01-16T12:50:25;4.17;;;1.43;;
62903;SDS011;49000;50.698;13.322;2024-01-16T12:53:09;3.67;;;1.57;;
62903;SDS011;49000;50.698;13.322;2024-01-16T12:55:36;3.00;;;1.50;;
62903;SDS011;49000;50.698;13.322;2024-01-16T12:58:12;4.43;;;1.60;;
62903;SDS011;49000;50.698;13.322;2024-01-16T13:00:48;2.27;;;1.50;;
62903;SDS011;49000;50.698;13.322;2024-01-16T13:03:15;2.23;;;1.27;;
62903;SDS011;49000;50.698;13.322;2024-01-16T13:05:46;3.47;;;1.13;;
62903;SDS011;49000;50.698;13.322;2024-01-16T13:08:21;2.70;;;1.47;;
62903;SDS011;49000;50.698;13.322;2024-01-16T13:11:05;3.23;;;1.10;;
62903;SDS011;49000;50.698;13.322;2024-01-16T13:13:32;3.07;;;1.60;;
62903;SDS011;49000;50.698;13.322;2024-01-16T13:15:58;2.40;;;1.07;;
62903;SDS011;49000;50.698;13.322;2024-01-16T13:18:25;5.50;;;1.53;;
62903;SDS011;49000;50.698;13.322;2024-01-16T13:20:53;2.33;;;1.00;;
62903;SDS011;49000;50.698;13.322;2024-01-16T13:23:20;4.47;;;1.80;;
62903;SDS011;49000;50.698;13.322;2024-01-16T13:25:47;4.17;;;1.70;;
62903;SDS011;49000;50.698;13.322;2024-01-16T13:28:13;5.30;;;1.63;;
62903;SDS011;49000;50.698;13.322;2024-01-16T13:30:40;3.90;;;1.47;;
62903;SDS011;49000;50.698;13.322;2024-01-16T13:33:06;2.20;;;1.37;;
62903;SDS011;49000;50.698;13.322;2024-01-16T13:35:33;3.87;;;1.30;;
62903;SDS011;49000;50.698;13.322;2024-01-16T13:38:06;4.97;;;1.87;;
62903;SDS011;49000;50.698;13.322;2024-01-16T13:40:33;4.47;;;1.50;;
62903;SDS011;49000;50.698;13.322;2024-01-16T13:43:00;3.67;;;1.50;;
62903;SDS011;49000;50.698;13.322;2024-01-16T13:45:26;1.67;;;1.20;;
62903;SDS011;49000;50.698;13.322;2024-01-16T13:47:52;5.33;;;1.50;;
62903;SDS011;49000;50.698;13.322;2024-01-16T13:50:18;3.40;;;1.80;;
62903;SDS011;49000;50.698;13.322;2024-01-16T13:52:44;2.57;;;1.47;;
62903;SDS011;49000;50.698;13.322;2024-01-16T13:55:10;5.13;;;2.03;;
62903;SDS011;49000;50.698;13.322;2024-01-16T13:57:36;3.57;;;1.80;;
62903;SDS011;49000;50.698;13.322;2024-01-16T14:00:02;4.97;;;1.80;;
62903;SDS011;49000;50.698;13.322;2024-01-16T14:02:29;3.60;;;1.80;;
62903;SDS011;49000;50.698;13.322;2024-01-16T14:04:55;4.67;;;1.87;;
62903;SDS011;49000;50.698;13.322;2024-01-16T14:07:20;6.10;;;2.10;;
62903;SDS011;49000;50.698;13.322;2024-01-16T14:09:46;4.63;;;1.53;;
62903;SDS011;49000;50.698;13.322;2024-01-16T14:12:13;3.63;;;2.10;;
62903;SDS011;49000;50.698;13.322;2024-01-16T14:14:38;4.00;;;1.87;;
62903;SDS011;49000;50.698;13.322;2024-01-16T14:17:05;5.77;;;2.10;;
62903;SDS011;49000;50.698;13.322;2024-01-16T14:19:31;5.57;;;2.00;;
62903;SDS011;49000;50.698;13.322;2024-01-16T14:21:59;5.07;;;2.00;;
62903;SDS011;49000;50.698;13.322;2024-01-16T14:24:25;3.63;;;2.00;;
62903;SDS011;49000;50.698;13.322;2024-01-16T14:26:50;4.10;;;1.67;;
62903;SDS011;49000;50.698;13.322;2024-01-16T14:29:16;3.67;;;1.80;;
62903;SDS011;49000;50.698;13.322;2024-01-16T14:31:41;8.50;;;2.13;;
62903;SDS011;49000;50.698;13.322;2024-01-16T14:34:10;4.90;;;1.83;;
62903;SDS011;49000;50.698;13.322;2024-01-16T14:36:41;6.47;;;2.40;;
62903;SDS011;49000;50.698;13.322;2024-01-16T14:39:07;2.83;;;1.93;;
62903;SDS011;49000;50.698;13.322;2024-01-16T14:41:41;3.30;;;1.83;;